sensor_id;sensor_type;location;lat;lon;timestamp;P1;durP1;ratioP1;P2;durP2;ratioP2
11498;SDS011;5806;48.748;9.278;2023-02-19T00:01:41;4.67;;;4.07;;
11498;SDS011;5806;48.748;9.278;2023-02-19T00:04:12;4.73;;;4.23;;
11498;SDS011;5806;48.748;9.278;2023-02-19T00:06:39;4.23;;;3.83;;
11498;SDS011;5806;48.748;9.278;2023-02-19T00:09:05;4.90;;;4.43;;
11498;SDS011;5806;48.748;9.278;2023-02-19T00:11:32;6.10;;;4.40;;
11498;SDS011;5806;48.748;9.278;2023-02-19T00:13:59;4.53;;;4.13;;
11498;SDS011;5806;48.748;9.278;2023-02-19T00:16:27;6.27;;;5.10;;
11498;SDS011;5806;48.748;9.278;2023-02-19T00:18:55;5.70;;;4.77;;
11498;SDS011;5806;48.748;9.278;2023-02-19T00:21:22;5.17;;;4.67;;
11498;SDS011;5806;48.748;9.278;2023-02-19T00:23:49;5.90;;;5.30;;
11498;SDS011;5806;48.748;9.278;2023-02-19T00:26:15;6.97;;;4.97;;
11498;SDS011;5806;48.748;9.278;2023-02-19T00:28:42;5.70;;;5.10;;
11498;SDS011;5806;48.748;9.278;2023-02-19T00:31:11;5.93;;;5.23;;
11498;SDS011;5806;48.748;9.278;2023-02-19T00:33:36;6.23;;;5.47;;
11498;SDS011;5806;48.748;9.278;2023-02-19T00:36:03;6.70;;;6.03;;
11498;SDS011;5806;48.748;9.278;2023-02-19T00:38:31;6.43;;;5.83;;
11498;SDS011;5806;48.748;9.278;2023-02-19T00:40:58;6.40;;;5.80;;
11498;SDS011;5806;48.748;9.278;2023-02-19T00:43:25;6.47;;;5.70;;
11498;SDS011;5806;48.748;9.278;2023-02-19T00:45:52;6.40;;;5.80;;
11498;SDS011;5806;48.748;9.278;2023-02-19T00:48:18;5.87;;;5.27;;
11498;SDS011;5806;48.748;9.278;2023-02-19T00:50:45;5.60;;;4.87;;
11498;SDS011;5806;48.748;9.278;2023-02-19T00:53:11;5.97;;;5.37;;
11498;SDS011;5806;48.748;9.278;2023-02-19T00:55:38;5.90;;;5.27;;
11498;SDS011;5806;48.748;9.278;2023-02-19T00:58:04;6.03;;;5.10;;
11498;SDS011;5806;48.748;9.278;2023-02-19T01:00:31;5.67;;;5.07;;
11498;SDS011;5806;48.748;9.278;2023-02-19T01:02:58;4.90;;;4.40;;
11498;SDS011;5806;48.748;9.278;2023-02-19T01:05:24;5.80;;;5.00;;
11498;SDS011;5806;48.748;9.278;2023-02-19T01:07:51;5.43;;;4.77;;
11498;SDS011;5806;48.748;9.278;2023-02-19T01:10:17;6.27;;;5.23;;
11498;SDS011;5806;48.748;9.278;2023-02-19T01:12:44;5.80;;;4.73;;
11498;SDS011;5806;48.748;9.278;2023-02-19T01:15:10;5.37;;;4.87;;
11498;SDS011;5806;48.748;9.278;2023-02-19T01:17:37;5.60;;;5.10;;
11498;SDS011;5806;48.748;9.278;2023-02-19T01:20:03;5.30;;;4.80;;
11498;SDS011;5806;48.748;9.278;2023-02-19T01:22:30;5.67;;;5.00;;
11498;SDS011;5806;48.748;9.278;2023-02-19T01:24:56;6.70;;;5.53;;
11498;SDS011;5806;48.748;9.278;2023-02-19T01:27:23;6.00;;;5.40;;
11498;SDS011;5806;48.748;9.278;2023-02-19T01:29:49;6.87;;;5.10;;
11498;SDS011;5806;48.748;9.278;2023-02-19T01:32:16;6.50;;;4.90;;
11498;SDS011;5806;48.748;9.278;2023-02-19T01:34:42;5.27;;;4.77;;
11498;SDS011;5806;48.748;9.278;2023-02-19T01:37:09;4.90;;;4.40;;
11498;SDS011;5806;48.748;9.278;2023-02-19T01:39:37;5.53;;;4.83;;
11498;SDS011;5806;48.748;9.278;2023-02-19T01:42:04;5.30;;;4.60;;
11498;SDS011;5806;48.748;9.278;2023-02-19T01:47:02;5.90;;;5.30;;
11498;SDS011;5806;48.748;9.278;2023-02-19T01:49:29;8.77;;;5.50;;
11498;SDS011;5806;48.748;9.278;2023-02-19T01:51:58;6.03;;;5.33;;
11498;SDS011;5806;48.748;9.278;2023-02-19T01:54:25;6.07;;;5.23;;
11498;SDS011;5806;48.748;9.278;2023-02-19T01:56:53;6.03;;;5.23;;
11498;SDS011;5806;48.748;9.278;2023-02-19T01:59:19;5.77;;;5.17;;
11498;SDS011;5806;48.748;9.278;2023-02-19T02:01:46;6.90;;;5.47;;
11498;SDS011;5806;48.748;9.278;2023-02-19T02:04:13;6.17;;;5.27;;
11498;SDS011;5806;48.748;9.278;2023-02-19T02:06:42;8.67;;;5.33;;
11498;SDS011;5806;48.748;9.278;2023-02-19T02:09:08;7.17;;;5.10;;
11498;SDS011;5806;48.748;9.278;2023-02-19T02:11:53;8.17;;;5.37;;
11498;SDS011;5806;48.748;9.278;2023-02-19T02:14:26;5.70;;;5.10;;
11498;SDS011;5806;48.748;9.278;2023-02-19T02:16:57;7.40;;;5.03;;
11498;SDS011;5806;48.748;9.278;2023-02-19T02:22:13;4.93;;;4.43;;
11498;SDS011;5806;48.748;9.278;2023-02-19T02:30:16;7.90;;;5.43;;
11498;SDS011;5806;48.748;9.278;2023-02-19T02:32:36;8.27;;;5.80;;
11498;SDS011;5806;48.748;9.278;2023-02-19T02:35:10;8.47;;;6.13;;
11498;SDS011;5806;48.748;9.278;2023-02-19T02:37:34;7.80;;;5.93;;
11498;SDS011;5806;48.748;9.278;2023-02-19T02:40:02;7.93;;;6.27;;
11498;SDS011;5806;48.748;9.278;2023-02-19T02:42:37;8.47;;;6.77;;
11498;SDS011;5806;48.748;9.278;2023-02-19T02:45:21;9.27;;;6.50;;
11498;SDS011;5806;48.748;9.278;2023-02-19T02:50:34;7.10;;;6.17;;
11498;SDS011;5806;48.748;9.278;2023-02-19T02:53:13;7.10;;;6.00;;
11498;SDS011;5806;48.748;9.278;2023-02-19T02:56:00;8.77;;;6.37;;
11498;SDS011;5806;48.748;9.278;2023-02-19T02:58:29;9.67;;;6.50;;
11498;SDS011;5806;48.748;9.278;2023-02-19T03:01:03;8.33;;;6.00;;
11498;SDS011;5806;48.748;9.278;2023-02-19T03:03:47;7.60;;;6.13;;
11498;SDS011;5806;48.748;9.278;2023-02-19T03:06:16;9.90;;;6.80;;
11498;SDS011;5806;48.748;9.278;2023-02-19T03:08:55;8.40;;;6.20;;
11498;SDS011;5806;48.748;9.278;2023-02-19T03:11:23;8.73;;;6.70;;
11498;SDS011;5806;48.748;9.278;2023-02-19T03:14:10;8.87;;;6.53;;
11498;SDS011;5806;48.748;9.278;2023-02-19T03:16:59;10.10;;;6.70;;
11498;SDS011;5806;48.748;9.278;2023-02-19T03:19:46;8.27;;;6.83;;
11498;SDS011;5806;48.748;9.278;2023-02-19T03:22:17;9.07;;;7.27;;
11498;SDS011;5806;48.748;9.278;2023-02-19T03:25:04;10.63;;;7.20;;
11498;SDS011;5806;48.748;9.278;2023-02-19T03:27:46;9.20;;;7.53;;
11498;SDS011;5806;48.748;9.278;2023-02-19T03:30:17;9.87;;;7.77;;
11498;SDS011;5806;48.748;9.278;2023-02-19T03:32:50;9.83;;;7.27;;
11498;SDS011;5806;48.748;9.278;2023-02-19T03:35:20;15.27;;;9.53;;
11498;SDS011;5806;48.748;9.278;2023-02-19T03:37:53;11.20;;;8.90;;
11498;SDS011;5806;48.748;9.278;2023-02-19T03:40:41;10.93;;;8.47;;
11498;SDS011;5806;48.748;9.278;2023-02-19T03:43:16;14.30;;;9.77;;
11498;SDS011;5806;48.748;9.278;2023-02-19T03:46:04;14.43;;;9.30;;
11498;SDS011;5806;48.748;9.278;2023-02-19T03:48:34;15.03;;;9.17;;
11498;SDS011;5806;48.748;9.278;2023-02-19T03:51:19;12.57;;;10.07;;
11498;SDS011;5806;48.748;9.278;2023-02-19T03:53:57;12.73;;;8.77;;
11498;SDS011;5806;48.748;9.278;2023-02-19T03:56:28;14.70;;;10.30;;
11498;SDS011;5806;48.748;9.278;2023-02-19T03:58:59;15.83;;;9.30;;
11498;SDS011;5806;48.748;9.278;2023-02-19T04:01:47;13.63;;;9.90;;
11498;SDS011;5806;48.748;9.278;2023-02-19T04:04:30;15.90;;;10.80;;
11498;SDS011;5806;48.748;9.278;2023-02-19T04:06:58;20.97;;;9.97;;
11498;SDS011;5806;48.748;9.278;2023-02-19T04:09:28;15.50;;;10.77;;
11498;SDS011;5806;48.748;9.278;2023-02-19T04:12:05;15.97;;;11.20;;
11498;SDS011;5806;48.748;9.278;2023-02-19T04:14:37;16.83;;;10.97;;
11498;SDS011;5806;48.748;9.278;2023-02-19T04:17:10;19.13;;;11.10;;
11498;SDS011;5806;48.748;9.278;2023-02-19T04:19:38;20.80;;;11.33;;
11498;SDS011;5806;48.748;9.278;2023-02-19T04:22:08;17.27;;;11.30;;
11498;SDS011;5806;48.748;9.278;2023-02-19T04:24:39;15.90;;;11.63;;
11498;SDS011;5806;48.748;9.278;2023-02-19T04:27:08;16.60;;;11.03;;
11498;SDS011;5806;48.748;9.278;2023-02-19T04:29:36;16.50;;;11.30;;
11498;SDS011;5806;48.748;9.278;2023-02-19T04:32:03;15.97;;;11.40;;
11498;SDS011;5806;48.748;9.278;2023-02-19T04:34:32;17.47;;;12.03;;
11498;SDS011;5806;48.748;9.278;2023-02-19T04:36:59;19.23;;;12.40;;
11498;SDS011;5806;48.748;9.278;2023-02-19T04:39:26;20.20;;;14.20;;
11498;SDS011;5806;48.748;9.278;2023-02-19T04:41:54;19.60;;;14.40;;
11498;SDS011;5806;48.748;9.278;2023-02-19T04:44:21;21.23;;;14.23;;
11498;SDS011;5806;48.748;9.278;2023-02-19T04:46:49;19.77;;;12.57;;
11498;SDS011;5806;48.748;9.278;2023-02-19T04:49:16;23.13;;;13.37;;
11498;SDS011;5806;48.748;9.278;2023-02-19T04:51:44;17.27;;;13.03;;
11498;SDS011;5806;48.748;9.278;2023-02-19T04:54:11;21.00;;;12.43;;
11498;SDS011;5806;48.748;9.278;2023-02-19T04:56:39;18.53;;;12.27;;
11498;SDS011;5806;48.748;9.278;2023-02-19T04:59:06;18.93;;;11.83;;
11498;SDS011;5806;48.748;9.278;2023-02-19T05:01:33;20.33;;;12.03;;
11498;SDS011;5806;48.748;9.278;2023-02-19T05:04:01;21.97;;;12.33;;
11498;SDS011;5806;48.748;9.278;2023-02-19T05:06:29;16.63;;;11.40;;
11498;SDS011;5806;48.748;9.278;2023-02-19T05:08:56;16.50;;;11.80;;
11498;SDS011;5806;48.748;9.278;2023-02-19T05:11:24;17.47;;;12.37;;
11498;SDS011;5806;48.748;9.278;2023-02-19T05:13:51;17.60;;;12.27;;
11498;SDS011;5806;48.748;9.278;2023-02-19T05:16:21;18.93;;;13.90;;
11498;SDS011;5806;48.748;9.278;2023-02-19T05:18:48;19.37;;;14.00;;
11498;SDS011;5806;48.748;9.278;2023-02-19T05:21:17;22.00;;;14.77;;
11498;SDS011;5806;48.748;9.278;2023-02-19T05:23:44;20.20;;;14.07;;
11498;SDS011;5806;48.748;9.278;2023-02-19T05:26:13;21.30;;;14.67;;
11498;SDS011;5806;48.748;9.278;2023-02-19T05:28:43;23.90;;;14.97;;
11498;SDS011;5806;48.748;9.278;2023-02-19T05:31:12;19.57;;;14.80;;
11498;SDS011;5806;48.748;9.278;2023-02-19T05:33:40;17.93;;;13.70;;
11498;SDS011;5806;48.748;9.278;2023-02-19T05:36:09;19.50;;;12.90;;
11498;SDS011;5806;48.748;9.278;2023-02-19T05:38:39;18.17;;;12.87;;
11498;SDS011;5806;48.748;9.278;2023-02-19T05:41:14;21.23;;;13.77;;
11498;SDS011;5806;48.748;9.278;2023-02-19T05:43:44;23.03;;;13.43;;
11498;SDS011;5806;48.748;9.278;2023-02-19T05:46:14;19.53;;;13.30;;
11498;SDS011;5806;48.748;9.278;2023-02-19T05:48:44;20.47;;;13.50;;
11498;SDS011;5806;48.748;9.278;2023-02-19T05:51:17;21.83;;;14.33;;
11498;SDS011;5806;48.748;9.278;2023-02-19T05:53:45;21.23;;;13.20;;
11498;SDS011;5806;48.748;9.278;2023-02-19T05:56:22;19.50;;;13.37;;
11498;SDS011;5806;48.748;9.278;2023-02-19T05:58:53;20.10;;;13.83;;
11498;SDS011;5806;48.748;9.278;2023-02-19T06:01:22;22.67;;;14.40;;
11498;SDS011;5806;48.748;9.278;2023-02-19T06:03:51;24.13;;;15.83;;
11498;SDS011;5806;48.748;9.278;2023-02-19T06:06:20;24.20;;;14.10;;
11498;SDS011;5806;48.748;9.278;2023-02-19T06:08:48;22.50;;;14.10;;
11498;SDS011;5806;48.748;9.278;2023-02-19T06:11:16;19.57;;;14.77;;
11498;SDS011;5806;48.748;9.278;2023-02-19T06:13:44;22.93;;;16.30;;
11498;SDS011;5806;48.748;9.278;2023-02-19T06:16:13;22.70;;;14.13;;
11498;SDS011;5806;48.748;9.278;2023-02-19T06:18:42;17.87;;;13.57;;
11498;SDS011;5806;48.748;9.278;2023-02-19T06:21:10;21.10;;;13.60;;
11498;SDS011;5806;48.748;9.278;2023-02-19T06:23:39;19.13;;;13.00;;
11498;SDS011;5806;48.748;9.278;2023-02-19T06:26:10;14.97;;;12.00;;
11498;SDS011;5806;48.748;9.278;2023-02-19T06:28:43;17.03;;;13.20;;
11498;SDS011;5806;48.748;9.278;2023-02-19T06:31:11;19.63;;;12.97;;
11498;SDS011;5806;48.748;9.278;2023-02-19T06:33:39;17.40;;;12.97;;
11498;SDS011;5806;48.748;9.278;2023-02-19T06:36:10;18.53;;;12.90;;
11498;SDS011;5806;48.748;9.278;2023-02-19T06:38:38;17.93;;;13.40;;
11498;SDS011;5806;48.748;9.278;2023-02-19T06:41:05;21.00;;;14.37;;
11498;SDS011;5806;48.748;9.278;2023-02-19T06:43:34;17.53;;;14.23;;
11498;SDS011;5806;48.748;9.278;2023-02-19T06:46:03;17.33;;;12.83;;
11498;SDS011;5806;48.748;9.278;2023-02-19T06:48:32;18.53;;;13.20;;
11498;SDS011;5806;48.748;9.278;2023-02-19T06:51:00;20.97;;;14.37;;
11498;SDS011;5806;48.748;9.278;2023-02-19T06:53:27;18.77;;;13.63;;
11498;SDS011;5806;48.748;9.278;2023-02-19T06:55:59;23.20;;;13.70;;
11498;SDS011;5806;48.748;9.278;2023-02-19T06:58:29;23.00;;;12.70;;
11498;SDS011;5806;48.748;9.278;2023-02-19T07:00:57;17.07;;;12.47;;
11498;SDS011;5806;48.748;9.278;2023-02-19T07:03:24;21.13;;;13.00;;
11498;SDS011;5806;48.748;9.278;2023-02-19T07:05:52;19.47;;;11.83;;
11498;SDS011;5806;48.748;9.278;2023-02-19T07:08:20;16.43;;;11.83;;
11498;SDS011;5806;48.748;9.278;2023-02-19T07:10:54;19.37;;;12.23;;
11498;SDS011;5806;48.748;9.278;2023-02-19T07:13:23;19.00;;;11.93;;
11498;SDS011;5806;48.748;9.278;2023-02-19T07:15:56;20.10;;;11.97;;
11498;SDS011;5806;48.748;9.278;2023-02-19T07:18:24;19.80;;;12.07;;
11498;SDS011;5806;48.748;9.278;2023-02-19T07:20:52;18.33;;;11.57;;
11498;SDS011;5806;48.748;9.278;2023-02-19T07:23:20;18.13;;;11.80;;
11498;SDS011;5806;48.748;9.278;2023-02-19T07:25:47;17.33;;;11.57;;
11498;SDS011;5806;48.748;9.278;2023-02-19T07:28:15;16.83;;;11.90;;
11498;SDS011;5806;48.748;9.278;2023-02-19T07:30:43;18.53;;;11.17;;
11498;SDS011;5806;48.748;9.278;2023-02-19T07:33:10;17.57;;;11.37;;
11498;SDS011;5806;48.748;9.278;2023-02-19T07:35:43;15.17;;;10.57;;
11498;SDS011;5806;48.748;9.278;2023-02-19T07:38:17;15.47;;;10.80;;
11498;SDS011;5806;48.748;9.278;2023-02-19T07:40:56;14.50;;;9.60;;
11498;SDS011;5806;48.748;9.278;2023-02-19T07:43:18;12.57;;;8.60;;
11498;SDS011;5806;48.748;9.278;2023-02-19T07:45:46;15.87;;;9.30;;
11498;SDS011;5806;48.748;9.278;2023-02-19T07:48:13;13.20;;;9.40;;
11498;SDS011;5806;48.748;9.278;2023-02-19T07:50:41;14.53;;;9.00;;
11498;SDS011;5806;48.748;9.278;2023-02-19T07:53:10;16.10;;;9.70;;
11498;SDS011;5806;48.748;9.278;2023-02-19T07:55:37;13.77;;;8.53;;
11498;SDS011;5806;48.748;9.278;2023-02-19T07:58:04;14.20;;;9.53;;
11498;SDS011;5806;48.748;9.278;2023-02-19T08:00:32;14.97;;;8.97;;
11498;SDS011;5806;48.748;9.278;2023-02-19T08:02:59;13.77;;;8.73;;
11498;SDS011;5806;48.748;9.278;2023-02-19T08:05:28;15.30;;;9.30;;
11498;SDS011;5806;48.748;9.278;2023-02-19T08:07:57;17.53;;;9.33;;
11498;SDS011;5806;48.748;9.278;2023-02-19T08:10:26;17.17;;;9.50;;
11498;SDS011;5806;48.748;9.278;2023-02-19T08:13:12;17.47;;;9.40;;
11498;SDS011;5806;48.748;9.278;2023-02-19T08:15:55;15.87;;;8.97;;
11498;SDS011;5806;48.748;9.278;2023-02-19T08:18:31;15.77;;;9.23;;
11498;SDS011;5806;48.748;9.278;2023-02-19T08:20:59;18.53;;;10.03;;
11498;SDS011;5806;48.748;9.278;2023-02-19T08:23:27;18.47;;;10.00;;
11498;SDS011;5806;48.748;9.278;2023-02-19T08:25:57;15.93;;;8.83;;
11498;SDS011;5806;48.748;9.278;2023-02-19T08:28:26;16.53;;;9.13;;
11498;SDS011;5806;48.748;9.278;2023-02-19T08:30:59;14.00;;;8.23;;
11498;SDS011;5806;48.748;9.278;2023-02-19T08:33:27;16.03;;;9.17;;
11498;SDS011;5806;48.748;9.278;2023-02-19T08:35:56;11.50;;;8.83;;
11498;SDS011;5806;48.748;9.278;2023-02-19T08:38:29;16.20;;;8.67;;
11498;SDS011;5806;48.748;9.278;2023-02-19T08:40:59;16.37;;;9.20;;
11498;SDS011;5806;48.748;9.278;2023-02-19T08:43:28;18.30;;;9.73;;
11498;SDS011;5806;48.748;9.278;2023-02-19T08:45:55;19.23;;;10.53;;
11498;SDS011;5806;48.748;9.278;2023-02-19T08:48:23;16.97;;;9.87;;
11498;SDS011;5806;48.748;9.278;2023-02-19T08:50:54;15.40;;;9.43;;
11498;SDS011;5806;48.748;9.278;2023-02-19T08:53:23;16.40;;;9.13;;
11498;SDS011;5806;48.748;9.278;2023-02-19T08:55:50;16.77;;;9.23;;
11498;SDS011;5806;48.748;9.278;2023-02-19T08:58:18;16.53;;;9.30;;
11498;SDS011;5806;48.748;9.278;2023-02-19T09:00:46;14.30;;;9.10;;
11498;SDS011;5806;48.748;9.278;2023-02-19T09:03:13;16.33;;;9.33;;
11498;SDS011;5806;48.748;9.278;2023-02-19T09:05:41;19.97;;;9.03;;
11498;SDS011;5806;48.748;9.278;2023-02-19T09:08:10;20.73;;;9.27;;
11498;SDS011;5806;48.748;9.278;2023-02-19T09:10:38;20.03;;;8.80;;
11498;SDS011;5806;48.748;9.278;2023-02-19T09:13:05;16.87;;;8.83;;
11498;SDS011;5806;48.748;9.278;2023-02-19T09:15:33;18.27;;;8.70;;
11498;SDS011;5806;48.748;9.278;2023-02-19T09:18:02;20.07;;;8.13;;
11498;SDS011;5806;48.748;9.278;2023-02-19T09:20:30;18.83;;;8.13;;
11498;SDS011;5806;48.748;9.278;2023-02-19T09:22:57;18.70;;;9.03;;
11498;SDS011;5806;48.748;9.278;2023-02-19T09:25:25;16.20;;;8.70;;
11498;SDS011;5806;48.748;9.278;2023-02-19T09:27:53;14.00;;;8.10;;
11498;SDS011;5806;48.748;9.278;2023-02-19T09:30:21;14.57;;;7.97;;
11498;SDS011;5806;48.748;9.278;2023-02-19T09:32:49;17.17;;;8.03;;
11498;SDS011;5806;48.748;9.278;2023-02-19T09:35:16;14.67;;;8.90;;
11498;SDS011;5806;48.748;9.278;2023-02-19T09:37:44;15.50;;;8.77;;
11498;SDS011;5806;48.748;9.278;2023-02-19T09:40:11;16.97;;;9.27;;
11498;SDS011;5806;48.748;9.278;2023-02-19T09:42:40;15.10;;;8.50;;
11498;SDS011;5806;48.748;9.278;2023-02-19T09:45:09;19.10;;;9.03;;
11498;SDS011;5806;48.748;9.278;2023-02-19T09:47:39;19.73;;;8.87;;
11498;SDS011;5806;48.748;9.278;2023-02-19T09:50:07;16.23;;;8.97;;
11498;SDS011;5806;48.748;9.278;2023-02-19T09:55:26;14.13;;;7.07;;
11498;SDS011;5806;48.748;9.278;2023-02-19T09:58:02;13.00;;;6.00;;
11498;SDS011;5806;48.748;9.278;2023-02-19T10:00:50;15.03;;;7.03;;
11498;SDS011;5806;48.748;9.278;2023-02-19T10:03:24;12.20;;;5.50;;
11498;SDS011;5806;48.748;9.278;2023-02-19T10:06:05;12.23;;;5.70;;
11498;SDS011;5806;48.748;9.278;2023-02-19T10:08:26;11.63;;;6.53;;
11498;SDS011;5806;48.748;9.278;2023-02-19T10:10:55;11.03;;;5.50;;
11498;SDS011;5806;48.748;9.278;2023-02-19T10:13:24;11.37;;;5.63;;
11498;SDS011;5806;48.748;9.278;2023-02-19T10:15:59;9.30;;;5.60;;
11498;SDS011;5806;48.748;9.278;2023-02-19T10:18:37;13.17;;;5.60;;
11498;SDS011;5806;48.748;9.278;2023-02-19T10:21:17;12.93;;;5.77;;
11498;SDS011;5806;48.748;9.278;2023-02-19T10:23:42;14.57;;;6.07;;
11498;SDS011;5806;48.748;9.278;2023-02-19T10:26:10;11.13;;;5.40;;
11498;SDS011;5806;48.748;9.278;2023-02-19T10:28:37;10.17;;;4.90;;
11498;SDS011;5806;48.748;9.278;2023-02-19T10:31:10;9.77;;;5.37;;
11498;SDS011;5806;48.748;9.278;2023-02-19T10:33:51;8.70;;;5.27;;
11498;SDS011;5806;48.748;9.278;2023-02-19T10:39:07;9.90;;;5.27;;
11498;SDS011;5806;48.748;9.278;2023-02-19T10:41:49;12.60;;;5.67;;
11498;SDS011;5806;48.748;9.278;2023-02-19T10:44:26;11.43;;;5.77;;
11498;SDS011;5806;48.748;9.278;2023-02-19T10:46:56;15.27;;;6.43;;
11498;SDS011;5806;48.748;9.278;2023-02-19T10:49:37;10.07;;;5.80;;
11498;SDS011;5806;48.748;9.278;2023-02-19T10:52:11;11.13;;;5.73;;
11498;SDS011;5806;48.748;9.278;2023-02-19T10:54:43;13.30;;;6.20;;
11498;SDS011;5806;48.748;9.278;2023-02-19T10:59:52;13.63;;;6.70;;
11498;SDS011;5806;48.748;9.278;2023-02-19T11:02:26;10.90;;;6.07;;
11498;SDS011;5806;48.748;9.278;2023-02-19T11:05:02;9.33;;;5.20;;
11498;SDS011;5806;48.748;9.278;2023-02-19T11:07:42;10.83;;;6.20;;
11498;SDS011;5806;48.748;9.278;2023-02-19T11:10:39;11.07;;;5.80;;
11498;SDS011;5806;48.748;9.278;2023-02-19T11:13:12;11.47;;;6.27;;
11498;SDS011;5806;48.748;9.278;2023-02-19T11:15:41;9.00;;;6.10;;
11498;SDS011;5806;48.748;9.278;2023-02-19T11:20:49;9.77;;;6.50;;
11498;SDS011;5806;48.748;9.278;2023-02-19T11:23:21;11.07;;;6.73;;
11498;SDS011;5806;48.748;9.278;2023-02-19T11:25:49;10.30;;;6.73;;
11498;SDS011;5806;48.748;9.278;2023-02-19T11:28:20;12.70;;;6.33;;
11498;SDS011;5806;48.748;9.278;2023-02-19T11:30:49;9.63;;;6.20;;
11498;SDS011;5806;48.748;9.278;2023-02-19T11:35:48;10.03;;;6.30;;
11498;SDS011;5806;48.748;9.278;2023-02-19T11:38:18;11.90;;;6.80;;
11498;SDS011;5806;48.748;9.278;2023-02-19T11:40:57;9.93;;;6.23;;
11498;SDS011;5806;48.748;9.278;2023-02-19T11:49:02;9.63;;;6.27;;
11498;SDS011;5806;48.748;9.278;2023-02-19T11:51:41;8.53;;;6.17;;
11498;SDS011;5806;48.748;9.278;2023-02-19T11:54:16;9.43;;;5.70;;
11498;SDS011;5806;48.748;9.278;2023-02-19T11:56:48;8.40;;;6.10;;
11498;SDS011;5806;48.748;9.278;2023-02-19T12:00:19;8.90;;;5.20;;
11498;SDS011;5806;48.748;9.278;2023-02-19T12:02:06;8.00;;;5.33;;
11498;SDS011;5806;48.748;9.278;2023-02-19T12:10:42;9.07;;;5.23;;
11498;SDS011;5806;48.748;9.278;2023-02-19T12:16:00;9.47;;;5.37;;
11498;SDS011;5806;48.748;9.278;2023-02-19T12:21:09;10.07;;;5.70;;
11498;SDS011;5806;48.748;9.278;2023-02-19T12:23:44;8.93;;;5.40;;
11498;SDS011;5806;48.748;9.278;2023-02-19T12:26:46;9.00;;;5.67;;
11498;SDS011;5806;48.748;9.278;2023-02-19T12:29:34;9.73;;;5.57;;
11498;SDS011;5806;48.748;9.278;2023-02-19T12:35:21;10.90;;;5.93;;
11498;SDS011;5806;48.748;9.278;2023-02-19T12:37:52;7.23;;;5.27;;
11498;SDS011;5806;48.748;9.278;2023-02-19T12:45:57;7.17;;;4.70;;
11498;SDS011;5806;48.748;9.278;2023-02-19T12:48:40;8.67;;;5.50;;
11498;SDS011;5806;48.748;9.278;2023-02-19T12:54:20;8.30;;;4.23;;
11498;SDS011;5806;48.748;9.278;2023-02-19T12:57:05;7.47;;;4.30;;
11498;SDS011;5806;48.748;9.278;2023-02-19T12:59:41;7.27;;;4.23;;
11498;SDS011;5806;48.748;9.278;2023-02-19T13:02:35;8.23;;;4.40;;
11498;SDS011;5806;48.748;9.278;2023-02-19T13:05:19;6.03;;;5.10;;
11498;SDS011;5806;48.748;9.278;2023-02-19T13:10:49;7.87;;;4.10;;
11498;SDS011;5806;48.748;9.278;2023-02-19T13:13:18;6.87;;;4.10;;
11498;SDS011;5806;48.748;9.278;2023-02-19T13:15:49;7.13;;;3.90;;
11498;SDS011;5806;48.748;9.278;2023-02-19T13:18:27;7.40;;;4.30;;
11498;SDS011;5806;48.748;9.278;2023-02-19T13:20:56;6.77;;;4.17;;
11498;SDS011;5806;48.748;9.278;2023-02-19T13:23:29;4.83;;;3.43;;
11498;SDS011;5806;48.748;9.278;2023-02-19T13:28:59;4.07;;;2.93;;
11498;SDS011;5806;48.748;9.278;2023-02-19T13:31:38;6.83;;;3.57;;
11498;SDS011;5806;48.748;9.278;2023-02-19T13:34:20;5.73;;;3.43;;
11498;SDS011;5806;48.748;9.278;2023-02-19T13:37:03;6.10;;;3.27;;
11498;SDS011;5806;48.748;9.278;2023-02-19T13:39:30;7.00;;;3.70;;
11498;SDS011;5806;48.748;9.278;2023-02-19T13:41:59;8.03;;;4.13;;
11498;SDS011;5806;48.748;9.278;2023-02-19T13:44:30;7.97;;;3.73;;
11498;SDS011;5806;48.748;9.278;2023-02-19T13:47:00;8.20;;;3.93;;
11498;SDS011;5806;48.748;9.278;2023-02-19T13:52:00;8.10;;;3.93;;
11498;SDS011;5806;48.748;9.278;2023-02-19T13:54:30;5.07;;;3.37;;
11498;SDS011;5806;48.748;9.278;2023-02-19T13:59:51;4.17;;;3.53;;
11498;SDS011;5806;48.748;9.278;2023-02-19T14:07:32;7.63;;;4.30;;
11498;SDS011;5806;48.748;9.278;2023-02-19T14:10:11;9.33;;;5.60;;
11498;SDS011;5806;48.748;9.278;2023-02-19T14:12:40;7.50;;;4.80;;
11498;SDS011;5806;48.748;9.278;2023-02-19T14:18:49;4.77;;;3.93;;
11498;SDS011;5806;48.748;9.278;2023-02-19T14:20:50;8.07;;;4.53;;
11498;SDS011;5806;48.748;9.278;2023-02-19T14:23:24;4.97;;;4.47;;
11498;SDS011;5806;48.748;9.278;2023-02-19T14:25:56;5.47;;;4.43;;
11498;SDS011;5806;48.748;9.278;2023-02-19T14:31:20;6.43;;;4.70;;
11498;SDS011;5806;48.748;9.278;2023-02-19T14:33:49;8.20;;;5.00;;
11498;SDS011;5806;48.748;9.278;2023-02-19T14:41:43;7.50;;;5.27;;
11498;SDS011;5806;48.748;9.278;2023-02-19T14:44:16;9.37;;;6.13;;
11498;SDS011;5806;48.748;9.278;2023-02-19T14:46:48;7.80;;;6.43;;
11498;SDS011;5806;48.748;9.278;2023-02-19T14:49:22;10.93;;;6.70;;
11498;SDS011;5806;48.748;9.278;2023-02-19T14:51:50;8.00;;;6.40;;
11498;SDS011;5806;48.748;9.278;2023-02-19T14:54:21;9.57;;;6.90;;
11498;SDS011;5806;48.748;9.278;2023-02-19T14:56:56;11.30;;;6.50;;
11498;SDS011;5806;48.748;9.278;2023-02-19T14:59:25;8.60;;;7.13;;
11498;SDS011;5806;48.748;9.278;2023-02-19T15:01:59;8.47;;;6.47;;
11498;SDS011;5806;48.748;9.278;2023-02-19T15:04:33;12.80;;;7.43;;
11498;SDS011;5806;48.748;9.278;2023-02-19T15:07:02;10.00;;;7.10;;
11498;SDS011;5806;48.748;9.278;2023-02-19T15:09:35;10.20;;;6.70;;
11498;SDS011;5806;48.748;9.278;2023-02-19T15:12:02;9.87;;;7.17;;
11498;SDS011;5806;48.748;9.278;2023-02-19T15:14:31;10.87;;;7.43;;
11498;SDS011;5806;48.748;9.278;2023-02-19T15:17:00;12.00;;;8.97;;
11498;SDS011;5806;48.748;9.278;2023-02-19T15:19:31;11.37;;;8.13;;
11498;SDS011;5806;48.748;9.278;2023-02-19T15:22:01;14.03;;;8.23;;
11498;SDS011;5806;48.748;9.278;2023-02-19T15:24:29;12.10;;;8.67;;
11498;SDS011;5806;48.748;9.278;2023-02-19T15:26:57;13.97;;;8.77;;
11498;SDS011;5806;48.748;9.278;2023-02-19T15:29:25;11.77;;;9.10;;
11498;SDS011;5806;48.748;9.278;2023-02-19T15:31:55;11.03;;;8.83;;
11498;SDS011;5806;48.748;9.278;2023-02-19T15:34:25;13.17;;;8.57;;
11498;SDS011;5806;48.748;9.278;2023-02-19T15:36:55;14.03;;;8.70;;
11498;SDS011;5806;48.748;9.278;2023-02-19T15:39:32;13.67;;;9.33;;
11498;SDS011;5806;48.748;9.278;2023-02-19T15:41:56;11.33;;;8.83;;
11498;SDS011;5806;48.748;9.278;2023-02-19T15:44:40;15.17;;;9.37;;
11498;SDS011;5806;48.748;9.278;2023-02-19T15:47:15;13.33;;;9.13;;
11498;SDS011;5806;48.748;9.278;2023-02-19T15:49:45;17.73;;;11.30;;
11498;SDS011;5806;48.748;9.278;2023-02-19T15:52:26;14.37;;;9.67;;
11498;SDS011;5806;48.748;9.278;2023-02-19T15:54:56;17.00;;;10.47;;
11498;SDS011;5806;48.748;9.278;2023-02-19T15:57:29;15.70;;;10.70;;
11498;SDS011;5806;48.748;9.278;2023-02-19T15:59:59;13.87;;;9.97;;
11498;SDS011;5806;48.748;9.278;2023-02-19T16:02:33;13.87;;;10.40;;
11498;SDS011;5806;48.748;9.278;2023-02-19T16:05:10;14.83;;;10.90;;
11498;SDS011;5806;48.748;9.278;2023-02-19T16:07:40;17.40;;;11.70;;
11498;SDS011;5806;48.748;9.278;2023-02-19T16:12:55;17.93;;;11.33;;
11498;SDS011;5806;48.748;9.278;2023-02-19T16:15:27;18.70;;;12.67;;
11498;SDS011;5806;48.748;9.278;2023-02-19T16:17:56;18.27;;;12.40;;
11498;SDS011;5806;48.748;9.278;2023-02-19T16:20:31;22.43;;;12.23;;
11498;SDS011;5806;48.748;9.278;2023-02-19T16:23:04;15.30;;;11.17;;
11498;SDS011;5806;48.748;9.278;2023-02-19T16:25:37;15.87;;;10.93;;
11498;SDS011;5806;48.748;9.278;2023-02-19T16:28:12;17.10;;;10.77;;
11498;SDS011;5806;48.748;9.278;2023-02-19T16:30:41;17.40;;;10.87;;
11498;SDS011;5806;48.748;9.278;2023-02-19T16:33:18;17.30;;;10.60;;
11498;SDS011;5806;48.748;9.278;2023-02-19T16:35:48;16.50;;;10.50;;
11498;SDS011;5806;48.748;9.278;2023-02-19T16:38:17;17.00;;;11.00;;